North Bay, New York
Current Conditions -  °F | °C
As of 8:53 PM on Friday 28 Nov 2014 (Local Time) from KRME Reporting Station
Light Snow Light Snow  
Wind Chill: 22°   Ceiling: 3100
Heat Index: 22°   Visibility: 9mi
Dew Point: 18°   Wind: 0mph
Humidity: 85%   Direction: NA
Pressure: 30.23"   Gusts: NA
Location:  43.23°N, 75.75°W
Report Text: KRME 290153Z 00000KT 9SM -SN OVC031 M06/M08 A3023 RMK AO2 SNB53 SLP244 P0000 T10561078
Loading
Personal Weather Stations






























Interactive Weather Map New forecast layout! Learn more

10-Day Weather Forecast

Advertisements
Track Severe Weather on mobile